Time;durP1;ratioP1;P1;durP2;ratioP2;P2;SDS_P1;SDS_P2;PMS_P1;PMS_P2;Temp;Humidity;BMP_temperature;BMP_pressure;BME280_temperature;BME280_humidity;BME280_pressure;Samples;Min_cycle;Max_cycle;Signal;HPM_P1;HPM_P2
2021/11/26 00:02:26;;;;;;;3.72;0.95;;;4.80;99.90;;;;;;4979416;28;20094;-81
2021/11/26 00:04:53;;;;;;;4.78;0.10;;;4.80;99.90;;;;;;4980277;28;20015;-80
2021/11/26 00:07:19;;;;;;;2.35;0.73;;;4.80;99.90;;;;;;4979436;28;20034;-80
2021/11/26 00:09:46;;;;;;;3.88;0.22;;;4.80;99.90;;;;;;4978471;28;20015;-80
2021/11/26 00:12:12;;;;;;;11.52;0.55;;;4.90;99.90;;;;;;4961409;28;20484;-80
2021/11/26 00:14:46;;;;;;;2.88;0.15;;;4.90;99.90;;;;;;4977833;28;20026;-79
2021/11/26 00:17:17;;;;;;;4.50;0.00;;;5.00;99.90;;;;;;4977482;28;20019;-80
2021/11/26 00:19:43;;;;;;;5.22;0.10;;;5.00;99.90;;;;;;4959753;28;20026;-80
2021/11/26 00:22:08;;;;;;;1.75;0.10;;;5.00;99.90;;;;;;4978267;28;20107;-80
2021/11/26 00:24:34;;;;;;;0.45;0.00;;;5.10;99.90;;;;;;4961290;28;20050;-80
2021/11/26 00:27:00;;;;;;;2.95;0.10;;;5.10;99.90;;;;;;4976888;28;20022;-80
2021/11/26 00:29:25;;;;;;;0.65;0.00;;;5.10;99.90;;;;;;4980139;28;20029;-79
2021/11/26 00:31:51;;;;;;;1.02;0.00;;;5.10;99.90;;;;;;4964478;28;20026;-80
2021/11/26 00:34:17;;;;;;;3.40;0.00;;;5.10;99.90;;;;;;4982178;28;20027;-80
2021/11/26 00:36:42;;;;;;;1.65;0.20;;;5.00;99.90;;;;;;4982389;28;20022;-80
2021/11/26 00:39:08;;;;;;;5.70;0.40;;;5.00;99.90;;;;;;4981988;28;20033;-80
2021/11/26 00:41:33;;;;;;;2.13;0.00;;;4.90;99.90;;;;;;4981757;28;20450;-80
2021/11/26 00:43:59;;;;;;;5.05;0.00;;;4.90;99.90;;;;;;4982136;28;20030;-81
2021/11/26 00:46:25;;;;;;;3.78;0.20;;;4.80;99.90;;;;;;4981399;28;20031;-80
2021/11/26 00:48:50;;;;;;;0.52;0.00;;;4.70;99.90;;;;;;4982893;28;20042;-80
2021/11/26 00:51:16;;;;;;;0.73;0.10;;;4.70;99.90;;;;;;4982085;28;20083;-80
2021/11/26 00:53:41;;;;;;;5.00;0.00;;;4.60;99.90;;;;;;4982358;28;20455;-80
2021/11/26 00:56:07;;;;;;;0.73;0.00;;;4.50;99.90;;;;;;4965342;28;20023;-80
2021/11/26 00:58:33;;;;;;;1.60;0.00;;;4.60;99.90;;;;;;4982454;28;20030;-80
2021/11/26 01:00:59;;;;;;;0.52;0.00;;;4.50;99.90;;;;;;4982737;28;20027;-81
2021/11/26 01:03:24;;;;;;;3.50;0.10;;;4.50;99.90;;;;;;4982379;28;20078;-81
2021/11/26 01:05:50;;;;;;;2.15;0.00;;;4.50;99.90;;;;;;4982928;28;20407;-81
2021/11/26 01:08:19;;;;;;;0.77;0.00;;;4.50;99.90;;;;;;4983679;28;20055;-80
2021/11/26 01:10:46;;;;;;;1.90;0.10;;;4.60;99.90;;;;;;4982135;28;20026;-80
2021/11/26 01:13:12;;;;;;;2.60;0.10;;;4.50;99.90;;;;;;4964558;28;20030;-80
2021/11/26 01:15:39;;;;;;;1.65;0.08;;;4.60;99.90;;;;;;4981119;28;20387;-80
2021/11/26 01:18:05;;;;;;;1.02;0.10;;;4.60;99.90;;;;;;4981600;28;20030;-81
2021/11/26 01:20:33;;;;;;;1.30;0.00;;;4.70;99.90;;;;;;4980904;28;20391;-80
2021/11/26 01:23:00;;;;;;;3.83;0.00;;;4.70;99.90;;;;;;4981026;28;20481;-80
2021/11/26 01:25:26;;;;;;;2.22;0.35;;;4.80;99.90;;;;;;4963483;28;20029;-80
2021/11/26 01:27:52;;;;;;;3.20;0.00;;;4.80;99.90;;;;;;4980798;28;20027;-79
2021/11/26 01:30:31;;;;;;;3.10;0.10;;;4.80;99.90;;;;;;4980791;28;20030;-79
2021/11/26 01:32:59;;;;;;;3.92;0.15;;;4.90;99.90;;;;;;4962992;28;20035;-79
2021/11/26 01:35:26;;;;;;;0.68;0.00;;;4.90;99.90;;;;;;4978132;28;20027;-79
2021/11/26 01:37:52;;;;;;;1.52;0.00;;;4.90;99.90;;;;;;4963369;28;20026;-79
2021/11/26 01:40:19;;;;;;;0.55;0.00;;;4.90;99.90;;;;;;4980812;28;20519;-79
2021/11/26 01:42:47;;;;;;;3.30;0.10;;;4.80;99.90;;;;;;4980198;28;20086;-78
2021/11/26 01:45:13;;;;;;;0.85;0.00;;;4.80;99.90;;;;;;4980611;28;20050;-79
2021/11/26 01:47:38;;;;;;;2.03;0.00;;;4.80;99.90;;;;;;4962562;28;20023;-79
2021/11/26 01:50:06;;;;;;;11.05;0.43;;;4.80;99.90;;;;;;4963717;28;20119;-80
2021/11/26 01:52:32;;;;;;;0.65;0.00;;;4.80;99.90;;;;;;4963686;28;20027;-79
2021/11/26 01:54:57;;;;;;;1.25;0.00;;;4.80;99.90;;;;;;4980854;28;20027;-78
2021/11/26 01:57:23;;;;;;;1.65;0.00;;;4.80;99.90;;;;;;4980874;28;20034;-79
2021/11/26 01:59:51;;;;;;;1.25;0.20;;;4.70;99.90;;;;;;4962885;28;20126;-79
2021/11/26 02:02:18;;;;;;;4.38;0.00;;;4.70;99.90;;;;;;4980373;28;20479;-79
2021/11/26 02:04:43;;;;;;;0.10;0.00;;;4.70;99.90;;;;;;4980034;28;20027;-79
2021/11/26 02:07:09;;;;;;;9.07;0.13;;;4.70;99.90;;;;;;4978618;28;20035;-79
2021/11/26 02:09:35;;;;;;;2.45;0.03;;;4.70;99.90;;;;;;4980330;28;20023;-79
2021/11/26 02:12:00;;;;;;;6.80;0.00;;;4.70;99.90;;;;;;4962040;28;20038;-79
2021/11/26 02:14:26;;;;;;;3.40;0.00;;;4.70;99.90;;;;;;4980888;28;20472;-80
2021/11/26 02:16:52;;;;;;;3.58;0.10;;;4.60;99.90;;;;;;4981476;28;20030;-79
2021/11/26 02:19:22;;;;;;;3.08;0.20;;;4.60;99.90;;;;;;4981337;28;20061;-79
2021/11/26 02:21:47;;;;;;;0.68;0.00;;;4.60;99.90;;;;;;4980220;28;20027;-79
2021/11/26 02:24:13;;;;;;;0.98;0.00;;;4.50;99.90;;;;;;4981394;28;20030;-80
2021/11/26 02:26:42;;;;;;;0.32;0.00;;;4.50;99.90;;;;;;4979372;28;20030;-80
2021/11/26 02:29:09;;;;;;;3.92;0.00;;;4.50;99.90;;;;;;4981750;28;20038;-80
2021/11/26 02:31:34;;;;;;;4.45;0.00;;;4.40;99.90;;;;;;4962713;28;20031;-80
2021/11/26 02:34:00;;;;;;;1.33;0.00;;;4.50;99.90;;;;;;4961625;28;20022;-79
2021/11/26 02:36:25;;;;;;;2.67;0.00;;;4.40;99.90;;;;;;4978125;28;20037;-80
2021/11/26 02:38:51;;;;;;;0.75;0.20;;;4.40;99.90;;;;;;4979038;28;20050;-79
2021/11/26 02:41:17;;;;;;;1.70;0.00;;;4.40;99.90;;;;;;4961806;28;20027;-80
2021/11/26 02:43:42;;;;;;;2.22;0.00;;;4.40;99.90;;;;;;4980339;28;20030;-80
2021/11/26 02:46:08;;;;;;;5.63;0.10;;;4.40;99.90;;;;;;4980810;28;20457;-80
2021/11/26 02:48:34;;;;;;;1.42;0.00;;;4.40;99.90;;;;;;4963400;28;20026;-80
2021/11/26 02:51:00;;;;;;;3.03;0.13;;;4.40;99.90;;;;;;4962804;28;20407;-81
2021/11/26 02:53:25;;;;;;;4.75;0.43;;;4.40;99.90;;;;;;4963699;28;20034;-80
2021/11/26 02:55:51;;;;;;;3.00;0.45;;;4.40;99.90;;;;;;4963294;28;20027;-80
2021/11/26 02:58:17;;;;;;;0.52;0.00;;;4.40;99.90;;;;;;4981840;28;20026;-80
2021/11/26 03:00:46;;;;;;;0.52;0.38;;;4.40;99.90;;;;;;4981001;28;20022;-80
2021/11/26 03:03:12;;;;;;;0.10;0.10;;;4.40;99.90;;;;;;4981183;28;20110;-80
2021/11/26 03:05:38;;;;;;;7.28;0.10;;;4.50;99.90;;;;;;4963241;28;20089;-80
2021/11/26 03:08:04;;;;;;;5.15;0.20;;;4.50;99.90;;;;;;4959725;28;20026;-79
2021/11/26 03:10:30;;;;;;;2.50;0.10;;;4.60;99.90;;;;;;4975926;28;20022;-77
2021/11/26 03:13:00;;;;;;;0.73;0.00;;;4.70;99.90;;;;;;4974523;28;20394;-77
2021/11/26 03:15:27;;;;;;;2.63;0.08;;;4.70;99.90;;;;;;4958418;28;20110;-78
2021/11/26 03:17:55;;;;;;;2.80;0.00;;;4.80;99.90;;;;;;4975620;28;20489;-77
2021/11/26 03:20:21;;;;;;;4.28;0.00;;;4.80;99.90;;;;;;4975789;28;20433;-78
2021/11/26 03:22:47;;;;;;;1.70;0.00;;;4.90;99.90;;;;;;4958404;28;20027;-78
2021/11/26 03:25:13;;;;;;;0.22;0.00;;;4.90;99.90;;;;;;4974257;28;20034;-79
2021/11/26 03:27:39;;;;;;;5.55;0.00;;;4.90;99.90;;;;;;4958273;28;20023;-78
2021/11/26 03:30:06;;;;;;;0.73;0.00;;;4.90;99.90;;;;;;4958333;28;20069;-78
2021/11/26 03:32:31;;;;;;;0.30;0.00;;;4.80;99.90;;;;;;4958600;28;20042;-78
2021/11/26 03:34:57;;;;;;;1.50;0.00;;;4.80;99.90;;;;;;4959695;28;20018;-79
2021/11/26 03:37:22;;;;;;;1.40;0.00;;;4.70;99.90;;;;;;4977032;28;20054;-78
2021/11/26 03:39:48;;;;;;;1.20;0.00;;;4.70;99.90;;;;;;4977344;28;20026;-79
2021/11/26 03:42:13;;;;;;;3.13;0.00;;;4.70;99.90;;;;;;4958823;28;20035;-78
2021/11/26 03:44:39;;;;;;;4.57;0.00;;;4.70;99.90;;;;;;4977128;28;20015;-79
2021/11/26 03:47:05;;;;;;;0.47;0.00;;;4.70;99.90;;;;;;4976424;28;20019;-79
2021/11/26 03:49:31;;;;;;;1.27;0.00;;;4.70;99.90;;;;;;4959444;28;20021;-79
2021/11/26 03:51:56;;;;;;;1.45;0.03;;;4.70;99.90;;;;;;4977172;28;20027;-79
2021/11/26 03:54:22;;;;;;;1.08;0.00;;;4.60;99.90;;;;;;4976638;28;20029;-79
2021/11/26 03:56:47;;;;;;;3.60;0.00;;;4.60;99.90;;;;;;4978245;28;20472;-79
2021/11/26 03:59:13;;;;;;;5.15;0.57;;;4.50;99.90;;;;;;4977729;28;20018;-79
2021/11/26 04:01:38;;;;;;;7.68;0.20;;;4.60;99.90;;;;;;4961176;28;20061;-79
2021/11/26 04:04:04;;;;;;;4.78;0.00;;;4.50;99.90;;;;;;4976592;28;20023;-78
2021/11/26 04:06:29;;;;;;;5.30;0.25;;;4.50;99.90;;;;;;4976346;28;20061;-79
2021/11/26 04:08:56;;;;;;;1.30;0.10;;;4.40;99.90;;;;;;4977784;28;20023;-80
2021/11/26 04:11:21;;;;;;;0.47;0.00;;;4.40;99.90;;;;;;4962050;28;20106;-79
2021/11/26 04:13:47;;;;;;;0.50;0.00;;;4.40;99.90;;;;;;4959453;28;20487;-79
2021/11/26 04:16:14;;;;;;;2.08;0.52;;;4.40;99.90;;;;;;4974585;28;20022;-78
2021/11/26 04:18:41;;;;;;;3.03;0.10;;;4.40;99.90;;;;;;4976674;28;20030;-79
2021/11/26 04:21:06;;;;;;;1.90;0.00;;;4.40;99.90;;;;;;4960117;28;20026;-78
2021/11/26 04:23:32;;;;;;;3.70;0.00;;;4.40;99.90;;;;;;4977176;28;20494;-79
2021/11/26 04:25:58;;;;;;;1.75;0.00;;;4.40;99.90;;;;;;4959394;28;20018;-79
2021/11/26 04:28:24;;;;;;;3.38;0.17;;;4.40;99.90;;;;;;4976612;28;20069;-79
2021/11/26 04:30:49;;;;;;;2.55;0.00;;;4.50;99.90;;;;;;4958009;28;20081;-79
2021/11/26 04:33:15;;;;;;;0.85;0.05;;;4.50;99.90;;;;;;4959573;28;20031;-79
2021/11/26 04:35:40;;;;;;;6.15;0.15;;;4.50;99.90;;;;;;4959947;28;20022;-79
2021/11/26 04:38:06;;;;;;;6.25;0.10;;;4.50;99.90;;;;;;4977099;28;20062;-78
2021/11/26 04:40:31;;;;;;;3.03;0.00;;;4.50;99.90;;;;;;4959726;28;20030;-79
2021/11/26 04:42:57;;;;;;;2.17;0.00;;;4.40;99.90;;;;;;4978113;28;20058;-79
2021/11/26 04:45:23;;;;;;;2.45;0.30;;;4.40;99.90;;;;;;4960008;28;20061;-78
2021/11/26 04:47:48;;;;;;;1.92;0.10;;;4.40;99.90;;;;;;4959680;28;20383;-79
2021/11/26 04:50:15;;;;;;;1.08;0.10;;;4.50;99.90;;;;;;4977073;28;20058;-79
2021/11/26 04:52:41;;;;;;;2.35;0.47;;;4.40;99.90;;;;;;4959342;28;20030;-79
2021/11/26 04:55:08;;;;;;;2.28;0.00;;;4.40;99.90;;;;;;4976924;28;20039;-78
2021/11/26 04:57:34;;;;;;;0.57;0.00;;;4.40;99.90;;;;;;4977244;28;20487;-78
2021/11/26 05:00:00;;;;;;;0.85;0.00;;;4.40;99.90;;;;;;4977398;28;20058;-79
2021/11/26 05:02:27;;;;;;;2.42;0.10;;;4.40;99.90;;;;;;4975752;28;20023;-79
2021/11/26 05:04:53;;;;;;;0.82;0.28;;;4.40;99.90;;;;;;4957753;28;20475;-78
2021/11/26 05:07:20;;;;;;;4.60;0.10;;;4.40;99.90;;;;;;4974656;28;20031;-78
2021/11/26 05:09:47;;;;;;;1.23;0.00;;;4.50;99.90;;;;;;4957447;28;20030;-78
2021/11/26 05:12:14;;;;;;;1.98;0.00;;;4.40;99.90;;;;;;4975208;28;20097;-79
2021/11/26 05:14:39;;;;;;;1.40;0.10;;;4.40;99.90;;;;;;4976696;28;20098;-80
2021/11/26 05:17:05;;;;;;;5.05;0.00;;;4.40;99.90;;;;;;4978563;28;20069;-80
2021/11/26 05:19:31;;;;;;;4.97;0.10;;;4.40;99.90;;;;;;4960467;28;20118;-77
2021/11/26 05:21:56;;;;;;;4.28;0.00;;;4.40;99.90;;;;;;4941391;29;20054;-78
2021/11/26 05:24:22;;;;;;;1.98;0.00;;;4.40;99.90;;;;;;4976591;28;20026;-79
2021/11/26 05:26:47;;;;;;;5.78;0.55;;;4.30;99.90;;;;;;4960057;28;20452;-78
2021/11/26 05:29:13;;;;;;;5.72;0.22;;;4.30;99.90;;;;;;4978146;28;20065;-78
2021/11/26 05:31:39;;;;;;;2.92;0.10;;;4.30;99.90;;;;;;4978057;28;20035;-78
2021/11/26 05:34:07;;;;;;;1.05;0.20;;;4.30;99.90;;;;;;4978049;28;20027;-78
2021/11/26 05:36:34;;;;;;;2.97;0.33;;;4.30;99.90;;;;;;4960067;28;20022;-78
2021/11/26 05:38:59;;;;;;;13.63;0.90;;;4.30;99.90;;;;;;4960058;28;20026;-79
2021/11/26 05:41:25;;;;;;;3.13;0.17;;;4.30;99.90;;;;;;4977247;28;20026;-78
2021/11/26 05:43:51;;;;;;;2.50;0.20;;;4.40;99.90;;;;;;4978105;28;20468;-78
2021/11/26 05:46:16;;;;;;;5.68;0.10;;;4.40;99.90;;;;;;4959978;28;20023;-78
2021/11/26 05:48:42;;;;;;;3.15;0.00;;;4.30;99.90;;;;;;4976248;28;20444;-78
2021/11/26 05:51:08;;;;;;;1.98;0.00;;;4.40;99.90;;;;;;4977455;28;20054;-79
2021/11/26 05:53:33;;;;;;;4.07;0.10;;;4.40;99.90;;;;;;4960264;28;20062;-79
2021/11/26 05:56:00;;;;;;;2.92;0.17;;;4.40;99.90;;;;;;4977058;28;20062;-77
2021/11/26 05:58:26;;;;;;;2.25;0.47;;;4.40;99.90;;;;;;4960052;28;20050;-78
2021/11/26 06:00:52;;;;;;;4.72;0.00;;;4.40;99.90;;;;;;4959378;28;20022;-79
2021/11/26 06:03:18;;;;;;;1.08;0.40;;;4.50;99.90;;;;;;4977628;28;20495;-79
2021/11/26 06:05:43;;;;;;;1.60;0.00;;;4.40;99.90;;;;;;4976629;28;20019;-78
2021/11/26 06:08:09;;;;;;;4.80;0.68;;;4.40;99.90;;;;;;4976949;28;20027;-78
2021/11/26 06:10:34;;;;;;;6.13;0.00;;;4.40;99.90;;;;;;4959564;28;20027;-78
2021/11/26 06:13:00;;;;;;;3.97;0.10;;;4.40;99.90;;;;;;4977707;28;20023;-78
2021/11/26 06:15:26;;;;;;;6.43;0.30;;;4.40;99.90;;;;;;4977192;28;20030;-78
2021/11/26 06:17:51;;;;;;;9.50;1.85;;;4.40;99.90;;;;;;4976536;28;20023;-78
2021/11/26 06:20:18;;;;;;;4.22;0.00;;;4.40;99.90;;;;;;4959606;28;20022;-79
2021/11/26 06:22:44;;;;;;;7.57;0.60;;;4.40;99.90;;;;;;4976782;28;20429;-78
2021/11/26 06:25:11;;;;;;;5.65;0.00;;;4.40;99.90;;;;;;4959441;28;20019;-79
2021/11/26 06:27:37;;;;;;;5.55;0.20;;;4.30;99.90;;;;;;4976586;28;20431;-79
2021/11/26 06:30:05;;;;;;;8.82;0.40;;;4.30;99.90;;;;;;4958883;28;20019;-75
2021/11/26 06:32:31;;;;;;;5.45;0.35;;;4.30;99.90;;;;;;4959205;28;20137;-75
2021/11/26 06:34:56;;;;;;;8.95;0.22;;;4.30;99.90;;;;;;4975938;28;20058;-75
2021/11/26 06:37:22;;;;;;;6.20;0.40;;;4.30;99.90;;;;;;4976507;28;20023;-74
2021/11/26 06:39:47;;;;;;;4.60;0.20;;;4.30;99.90;;;;;;4975857;28;20031;-74
2021/11/26 06:42:13;;;;;;;9.10;0.57;;;4.30;99.90;;;;;;4975952;28;20052;-74
2021/11/26 06:44:38;;;;;;;4.18;0.10;;;4.30;99.90;;;;;;4976068;28;20023;-74
2021/11/26 06:47:04;;;;;;;5.40;0.32;;;4.30;99.90;;;;;;4975904;28;20535;-74
2021/11/26 06:49:30;;;;;;;11.75;0.22;;;4.30;99.90;;;;;;4976233;28;20085;-75
2021/11/26 06:51:56;;;;;;;2.17;0.10;;;4.30;99.90;;;;;;4975634;28;20067;-77
2021/11/26 06:54:21;;;;;;;6.43;0.43;;;4.30;99.90;;;;;;4975865;28;20030;-76
2021/11/26 06:56:47;;;;;;;5.57;0.10;;;4.30;99.90;;;;;;4957243;28;20054;-76
2021/11/26 06:59:12;;;;;;;7.40;0.77;;;4.20;99.90;;;;;;4975833;28;20026;-77
2021/11/26 07:01:38;;;;;;;3.20;0.28;;;4.30;99.90;;;;;;4975967;28;20041;-78
2021/11/26 07:04:06;;;;;;;4.82;0.65;;;4.30;99.90;;;;;;4977054;28;20023;-79
2021/11/26 07:06:33;;;;;;;9.02;0.40;;;4.20;99.90;;;;;;4976213;28;20085;-79
2021/11/26 07:08:58;;;;;;;8.90;0.43;;;4.30;99.90;;;;;;4958871;28;20027;-79
2021/11/26 07:11:24;;;;;;;2.92;0.00;;;4.30;99.90;;;;;;4975689;28;20534;-79
2021/11/26 07:13:50;;;;;;;6.00;0.15;;;4.30;99.90;;;;;;4958420;28;20042;-75
2021/11/26 07:16:15;;;;;;;10.18;1.15;;;4.50;99.90;;;;;;4976810;28;20388;-76
2021/11/26 07:18:41;;;;;;;6.38;0.35;;;4.30;99.90;;;;;;4975993;28;20041;-75
2021/11/26 07:21:06;;;;;;;5.68;0.55;;;4.40;99.90;;;;;;4975816;28;20089;-76
2021/11/26 07:23:32;;;;;;;3.45;0.25;;;4.50;99.90;;;;;;4958658;28;20034;-75
2021/11/26 07:25:58;;;;;;;3.67;0.63;;;4.50;99.90;;;;;;4975798;28;20050;-76
2021/11/26 07:28:24;;;;;;;8.85;0.82;;;4.50;99.90;;;;;;4975806;28;20022;-76
2021/11/26 07:30:50;;;;;;;4.75;0.30;;;4.50;99.90;;;;;;4974441;28;20030;-76
2021/11/26 07:33:15;;;;;;;3.53;0.25;;;4.50;99.90;;;;;;4975659;28;20050;-76
2021/11/26 07:35:41;;;;;;;7.07;0.05;;;4.60;99.90;;;;;;4974269;28;20420;-76
2021/11/26 07:38:07;;;;;;;5.97;0.10;;;4.50;99.90;;;;;;4975900;28;20034;-76
2021/11/26 07:40:32;;;;;;;6.60;0.10;;;4.60;99.90;;;;;;4975914;28;20027;-76
2021/11/26 07:42:58;;;;;;;4.78;0.10;;;4.60;99.90;;;;;;4975429;28;20027;-76
2021/11/26 07:45:24;;;;;;;4.57;0.08;;;4.60;99.90;;;;;;4975292;28;20069;-76
2021/11/26 07:47:50;;;;;;;4.32;0.25;;;4.60;99.90;;;;;;4975378;28;20074;-76
2021/11/26 07:50:16;;;;;;;5.10;0.60;;;4.50;99.90;;;;;;4957508;28;20515;-75
2021/11/26 07:52:43;;;;;;;5.53;0.20;;;4.60;99.90;;;;;;4974962;28;20026;-76
2021/11/26 07:55:09;;;;;;;6.65;0.47;;;4.60;99.90;;;;;;4945689;28;20027;-76
2021/11/26 07:57:36;;;;;;;3.50;0.10;;;4.60;99.90;;;;;;4957452;28;20027;-76
2021/11/26 08:00:03;;;;;;;7.57;0.47;;;4.60;99.90;;;;;;4975209;28;20027;-76
2021/11/26 08:02:29;;;;;;;7.45;0.30;;;4.60;99.90;;;;;;4975569;28;20106;-76
2021/11/26 08:04:54;;;;;;;5.18;0.52;;;4.60;99.90;;;;;;4957490;28;20548;-76
2021/11/26 08:07:20;;;;;;;5.70;0.38;;;4.60;99.90;;;;;;4974084;28;20034;-76
2021/11/26 08:09:46;;;;;;;5.97;0.20;;;4.60;99.90;;;;;;4975004;28;20023;-76
2021/11/26 08:12:11;;;;;;;7.15;0.30;;;4.60;99.90;;;;;;4975096;28;20051;-76
2021/11/26 08:14:37;;;;;;;2.13;0.00;;;4.60;99.90;;;;;;4974982;28;20450;-77
2021/11/26 08:17:02;;;;;;;8.80;0.28;;;4.60;99.90;;;;;;4975031;28;20037;-75
2021/11/26 08:19:28;;;;;;;6.95;0.15;;;4.60;99.90;;;;;;4975091;28;20034;-76
2021/11/26 08:21:54;;;;;;;5.50;0.20;;;4.70;99.90;;;;;;4974719;28;20480;-75
2021/11/26 08:24:21;;;;;;;9.82;0.57;;;4.70;99.90;;;;;;4974670;28;20041;-75
2021/11/26 08:26:47;;;;;;;7.38;0.10;;;4.70;99.90;;;;;;4957508;28;20078;-75
2021/11/26 08:29:13;;;;;;;6.00;0.45;;;4.60;99.90;;;;;;4957992;28;20023;-75
2021/11/26 08:31:39;;;;;;;5.95;0.52;;;4.70;99.90;;;;;;4974793;28;20046;-76
2021/11/26 08:34:06;;;;;;;5.78;0.22;;;4.80;99.90;;;;;;4975104;28;20543;-75
2021/11/26 08:36:32;;;;;;;4.80;0.57;;;4.80;99.90;;;;;;4957809;28;20078;-75
2021/11/26 08:38:58;;;;;;;3.25;0.00;;;4.90;99.90;;;;;;4975245;28;20431;-75
2021/11/26 08:41:25;;;;;;;1.88;0.20;;;4.90;99.90;;;;;;4958205;28;20019;-76
2021/11/26 08:43:51;;;;;;;7.15;0.45;;;4.90;99.90;;;;;;4975054;28;20077;-75
2021/11/26 08:46:18;;;;;;;3.03;0.10;;;4.80;99.90;;;;;;4975513;28;20027;-75
2021/11/26 08:48:44;;;;;;;12.25;0.98;;;4.90;99.90;;;;;;4957791;28;20015;-76
2021/11/26 08:51:10;;;;;;;8.40;1.95;;;4.90;99.90;;;;;;4978877;28;20023;-76
2021/11/26 08:53:39;;;;;;;7.10;0.28;;;4.90;99.90;;;;;;4978946;28;20431;-75
2021/11/26 08:56:05;;;;;;;6.47;0.45;;;4.90;99.90;;;;;;4978769;28;20054;-75
2021/11/26 08:58:34;;;;;;;7.68;0.70;;;5.00;99.90;;;;;;4961399;28;20114;-75
2021/11/26 09:00:59;;;;;;;2.17;0.00;;;5.10;99.90;;;;;;4978375;28;20058;-75
2021/11/26 09:03:25;;;;;;;11.02;0.68;;;5.10;99.90;;;;;;4982177;28;20031;-74
2021/11/26 09:05:51;;;;;;;11.18;0.63;;;5.10;99.90;;;;;;4978165;28;20027;-75
2021/11/26 09:08:16;;;;;;;9.52;1.15;;;5.20;99.90;;;;;;4978622;28;20023;-75
2021/11/26 09:10:47;;;;;;;11.98;1.00;;;5.20;99.90;;;;;;4978640;28;20494;-75
2021/11/26 09:13:15;;;;;;;12.68;2.15;;;5.30;99.90;;;;;;4978426;28;20484;-75
2021/11/26 09:15:41;;;;;;;6.53;1.07;;;5.20;99.90;;;;;;4961152;28;20022;-75
2021/11/26 09:18:09;;;;;;;8.50;0.70;;;5.20;99.90;;;;;;4978571;28;20270;-75
2021/11/26 09:20:36;;;;;;;9.98;0.68;;;5.20;99.90;;;;;;4961177;28;20026;-75
2021/11/26 09:23:03;;;;;;;9.85;0.77;;;5.20;99.90;;;;;;4960967;28;20110;-75
2021/11/26 09:25:30;;;;;;;13.25;1.27;;;5.20;99.90;;;;;;4977941;28;20034;-75
2021/11/26 09:27:55;;;;;;;13.27;1.13;;;5.20;99.90;;;;;;4977544;28;20109;-75
2021/11/26 09:30:23;;;;;;;11.77;1.33;;;5.20;99.90;;;;;;4978377;28;20411;-75
2021/11/26 09:32:48;;;;;;;11.77;1.38;;;5.20;99.90;;;;;;4978895;28;20057;-75
2021/11/26 09:35:14;;;;;;;11.18;1.38;;;5.20;99.90;;;;;;4978317;28;20482;-75
2021/11/26 09:37:40;;;;;;;9.82;1.30;;;5.20;99.90;;;;;;4978057;28;20038;-75
2021/11/26 09:40:08;;;;;;;13.65;1.77;;;5.30;99.90;;;;;;4978422;28;20102;-75
2021/11/26 09:42:34;;;;;;;10.32;1.50;;;5.20;99.90;;;;;;4959928;28;20018;-75
2021/11/26 09:45:00;;;;;;;11.88;1.42;;;5.20;99.90;;;;;;4960650;28;20026;-75
2021/11/26 09:47:27;;;;;;;11.85;2.33;;;5.20;99.90;;;;;;4977914;28;20023;-75
2021/11/26 09:49:53;;;;;;;10.38;1.52;;;5.20;99.90;;;;;;4960273;28;20050;-75
2021/11/26 09:52:19;;;;;;;14.23;1.70;;;5.20;99.90;;;;;;4960431;28;20369;-75
2021/11/26 09:54:46;;;;;;;20.17;1.73;;;5.20;99.90;;;;;;4976416;28;20082;-75
2021/11/26 09:57:12;;;;;;;8.95;0.82;;;5.30;99.90;;;;;;4978252;28;20030;-75
2021/11/26 09:59:39;;;;;;;12.05;1.90;;;5.40;99.90;;;;;;4978473;28;20468;-75
2021/11/26 10:02:11;;;;;;;11.68;0.98;;;5.30;99.90;;;;;;4976758;28;20425;-75
2021/11/26 10:04:36;;;;;;;8.20;0.95;;;5.40;99.90;;;;;;4960892;28;20033;-75
2021/11/26 10:07:03;;;;;;;13.25;1.30;;;5.30;99.90;;;;;;4977560;28;20387;-75
2021/11/26 10:09:34;;;;;;;6.82;0.93;;;5.40;99.90;;;;;;4977631;28;20062;-75
2021/11/26 10:12:06;;;;;;;10.35;1.25;;;5.40;99.90;;;;;;4977624;28;20472;-75
2021/11/26 10:14:38;;;;;;;6.63;0.60;;;5.40;99.90;;;;;;4959535;28;20030;-75
2021/11/26 10:17:06;;;;;;;11.10;0.88;;;5.40;99.90;;;;;;4977098;28;20041;-75
2021/11/26 10:19:35;;;;;;;4.50;0.75;;;5.50;99.90;;;;;;4977362;28;20023;-75
2021/11/26 10:22:15;;;;;;;7.55;0.55;;;5.50;99.90;;;;;;4977008;28;20488;-75
2021/11/26 10:24:41;;;;;;;8.30;0.98;;;5.60;99.90;;;;;;4960415;28;20026;-75
2021/11/26 10:27:06;;;;;;;4.88;0.30;;;5.70;99.90;;;;;;4960673;28;20019;-75
2021/11/26 10:29:34;;;;;;;6.20;0.98;;;5.70;99.90;;;;;;4959599;28;20038;-75
2021/11/26 10:32:09;;;;;;;4.72;0.73;;;5.80;99.90;;;;;;4977345;28;20498;-75
2021/11/26 10:34:36;;;;;;;3.90;0.40;;;5.90;99.90;;;;;;4977416;28;20411;-75
2021/11/26 10:37:02;;;;;;;5.45;0.70;;;6.00;99.90;;;;;;4977333;28;20130;-75
2021/11/26 10:39:28;;;;;;;7.53;0.75;;;6.10;99.90;;;;;;4959300;28;20054;-75
2021/11/26 10:41:58;;;;;;;5.00;0.22;;;6.10;99.90;;;;;;4975819;28;20069;-75
2021/11/26 10:44:42;;;;;;;9.32;0.43;;;6.10;99.90;;;;;;4959679;28;20046;-75
2021/11/26 10:50:02;;;;;;;6.03;0.80;;;6.00;99.90;;;;;;4977291;28;20054;-75
2021/11/26 11:00:47;;;;;;;4.72;0.20;;;6.20;99.90;;;;;;4977048;28;20042;-75
2021/11/26 11:03:13;;;;;;;6.47;0.17;;;6.30;99.90;;;;;;4976832;28;20033;-75
2021/11/26 11:05:39;;;;;;;1.75;0.15;;;6.30;99.90;;;;;;4976677;28;20051;-75
2021/11/26 11:08:18;;;;;;;3.92;0.60;;;6.40;99.90;;;;;;4977217;28;20596;-75
2021/11/26 11:10:44;;;;;;;2.70;0.38;;;6.40;99.90;;;;;;4977356;28;20030;-75
2021/11/26 11:13:24;;;;;;;8.45;0.57;;;6.40;99.90;;;;;;4976293;28;20027;-75
2021/11/26 11:15:50;;;;;;;6.88;0.35;;;6.40;99.90;;;;;;4976688;28;20034;-75
2021/11/26 11:18:17;;;;;;;4.15;0.10;;;6.30;99.90;;;;;;4976442;28;20035;-75
2021/11/26 11:20:44;;;;;;;4.13;0.63;;;6.30;99.90;;;;;;4960159;28;20034;-75
2021/11/26 11:23:10;;;;;;;3.88;0.20;;;6.20;99.90;;;;;;4977180;28;20484;-75
2021/11/26 11:25:36;;;;;;;5.57;0.65;;;6.10;99.90;;;;;;4959051;28;20038;-76
2021/11/26 11:28:06;;;;;;;3.75;0.20;;;6.10;99.90;;;;;;4976273;28;20027;-75
2021/11/26 11:30:31;;;;;;;3.65;0.17;;;6.00;99.90;;;;;;4959006;28;20031;-75
2021/11/26 11:32:58;;;;;;;5.82;0.22;;;5.90;99.90;;;;;;4976163;28;20027;-75
2021/11/26 11:35:27;;;;;;;5.47;0.68;;;5.90;99.90;;;;;;4978264;28;20073;-75
2021/11/26 11:37:55;;;;;;;2.55;0.30;;;5.90;99.90;;;;;;4959807;28;20073;-75
2021/11/26 11:40:45;;;;;;;17.45;1.85;;;5.70;99.90;;;;;;4977034;28;20027;-74
2021/11/26 11:43:20;;;;;;;5.85;0.20;;;5.70;99.90;;;;;;4976480;28;20109;-74
2021/11/26 11:46:04;;;;;;;2.63;0.10;;;5.60;99.90;;;;;;4958119;28;20019;-74
2021/11/26 11:48:42;;;;;;;3.35;0.10;;;5.60;99.90;;;;;;4976040;28;20105;-75
2021/11/26 11:51:18;;;;;;;5.25;0.30;;;5.50;99.90;;;;;;4958592;28;20089;-75
2021/11/26 11:53:44;;;;;;;5.25;0.10;;;5.50;99.90;;;;;;4975736;28;20037;-74
2021/11/26 11:56:18;;;;;;;13.70;0.70;;;5.50;99.90;;;;;;4976204;28;20027;-75
2021/11/26 11:58:47;;;;;;;4.88;0.55;;;5.40;99.90;;;;;;4976042;28;20038;-75
2021/11/26 12:01:23;;;;;;;6.15;0.88;;;5.40;99.90;;;;;;4975493;28;20027;-74
2021/11/26 12:03:51;;;;;;;10.43;2.08;;;5.50;99.90;;;;;;4974887;28;20038;-75
2021/11/26 12:06:17;;;;;;;6.10;0.32;;;5.50;99.90;;;;;;4975030;28;20146;-74
2021/11/26 12:08:49;;;;;;;4.53;0.63;;;5.40;99.90;;;;;;4975155;28;20484;-74
2021/11/26 12:11:31;;;;;;;9.80;1.10;;;5.30;99.90;;;;;;4959864;28;20038;-74
2021/11/26 12:14:04;;;;;;;4.68;1.17;;;5.30;99.90;;;;;;4981158;28;20471;-74
2021/11/26 12:16:42;;;;;;;6.57;1.30;;;5.20;99.90;;;;;;4976242;28;20460;-74
2021/11/26 12:19:16;;;;;;;4.50;1.42;;;5.20;99.90;;;;;;4957807;28;20049;-74
2021/11/26 12:21:48;;;;;;;5.32;1.23;;;5.10;99.90;;;;;;4974046;28;20034;-74
2021/11/26 12:24:27;;;;;;;9.60;0.70;;;5.10;99.90;;;;;;4976929;28;20026;-74
2021/11/26 12:27:00;;;;;;;;;;;5.00;99.90;;;;;;4980018;28;20022;-74
2021/11/26 12:29:36;;;;;;;3.65;0.73;;;5.10;99.90;;;;;;4979775;28;19906;-74
2021/11/26 12:32:07;;;;;;;4.05;0.38;;;5.00;99.90;;;;;;4979537;28;20031;-74
2021/11/26 12:34:48;;;;;;;4.85;0.80;;;5.00;99.90;;;;;;4962383;28;20118;-74
2021/11/26 12:37:19;;;;;;;7.15;1.48;;;5.00;99.90;;;;;;4979180;28;20054;-74
2021/11/26 12:39:45;;;;;;;4.82;0.50;;;4.90;99.90;;;;;;4979145;28;20031;-74
2021/11/26 12:42:11;;;;;;;3.60;0.50;;;4.90;99.90;;;;;;4979461;28;20030;-74
2021/11/26 12:44:36;;;;;;;4.55;0.40;;;4.90;99.90;;;;;;4979204;28;20105;-74
2021/11/26 12:47:07;;;;;;;13.80;1.13;;;4.80;99.90;;;;;;4962072;28;20490;-74
2021/11/26 12:52:11;;;;;;;8.40;1.35;;;4.70;99.90;;;;;;4979438;28;20031;-74
2021/11/26 12:54:42;;;;;;;5.78;0.40;;;4.70;99.90;;;;;;4979291;28;20031;-74
2021/11/26 12:57:09;;;;;;;4.10;0.20;;;4.70;99.90;;;;;;4979127;28;20026;-74
2021/11/26 12:59:43;;;;;;;3.65;0.95;;;4.60;99.90;;;;;;4978998;28;20077;-74
2021/11/26 13:02:10;;;;;;;6.32;0.60;;;4.70;99.90;;;;;;4961904;28;20027;-74
2021/11/26 13:04:46;;;;;;;5.75;0.65;;;4.70;99.90;;;;;;4978886;28;20387;-74
2021/11/26 13:07:12;;;;;;;4.97;1.30;;;4.70;99.90;;;;;;4978478;28;20041;-74
2021/11/26 13:09:43;;;;;;;2.50;0.47;;;4.70;99.90;;;;;;4978764;28;20098;-74